Station: Bombala Aws  

  Atmospheric Gas Attenuation - ITU Rec 676-11   ----------------- dB/100km -----------------
Date Time Temp RH % AH g/m3 Dew Point Wind Direction Speed kph Gust kph Barometer mB Rainfall Since 9am 24GHz 47GHz 76GHz 122GHz 134GHz 241GHz
08/05 12:30 9.6 81 7.42 6.5 28 39 1016.8 0 17.3 25.3 37.2 97.5 88.0 301.5
08/05 12:20 9.3 82 7.37 6.4 33 39 1016.8 0 17.2 25.3 37.2 97.3 87.7 300.3
08/05 12:10 9.4 78 7.06 5.7 28 32 1016.6 0 16.5 24.8 35.8 93.8 83.4 285.4
08/05 12:00 9.6 76 6.96 5.6 32 52 1016.5 0 16.3 24.6 35.4 92.5 81.9 280.0
08/05 11:50 9.8 73 6.77 5.2 19 22 1016.8 0 15.8 24.2 34.5 90.3 79.2 270.7
08/05 11:40 9.9 70 6.54 4.7 50 61 1016.3 0 15.4 23.8 33.6 87.7 76.1 259.8
08/05 11:30 10.4 68 6.56 4.8 39 76 1016.5 0 15.4 23.7 33.4 87.4 75.9 259.1
08/05 11:20 10.8 74 7.32 6.3 22 26 1016.6 0 17.0 24.8 36.3 94.9 85.3 292.3
08/05 11:10 10.3 72 6.9 5.6 37 48 1016.2 0 16.1 24.3 34.8 91.0 80.3 274.8
08/05 11:00 11 71 7.11 6 35 59 1016.4 0 16.5 24.4 35.3 92.4 82.4 281.9
08/05 10:50 10.6 73 7.13 5.9 37 43 1016.1 0 16.6 24.5 35.6 93.1 83.0 284.2
08/05 10:40 10.4 72 6.94 5.7 43 50 1015.8 0 16.2 24.3 34.9 91.3 80.7 276.1
08/05 10:30 10.4 76 7.33 6.4 35 50 1015.9 0 17.0 24.9 36.4 95.4 85.9 294.1
08/05 10:20 9.7 80 7.38 6.4 33 46 1015.7 0 17.2 25.2 37.0 96.8 87.3 299.0
08/05 10:10 9.6 79 7.24 6.1 35 44 1015.7 0 16.9 25.0 36.4 95.4 85.5 292.8
08/05 10:00 9.9 79 7.38 6.4 48 72 1015.6 0 17.2 25.1 36.9 96.5 87.1 298.2
08/05 09:50 10.2 73 6.95 5.7 52 63 1015.1 0 16.2 24.3 35.0 91.5 81.0 277.1
08/05 09:40 10 75 7.05 5.9 48 57 1015 0 16.4 24.5 35.5 92.8 82.5 282.4
08/05 09:30 10.3 77 7.38 6.5 43 61 1015.1 0 17.1 25.0 36.7 96.0 86.6 296.6
08/05 09:20 9.9 75 7 5.8 43 54 1015 0 16.3 24.5 35.3 92.4 82.0 280.5
08/05 09:10 9.5 78 7.1 5.8 48 56 1015.1 0 16.6 24.8 35.9 94.0 83.7 286.6
08/05 09:00 9.5 79 7.19 6 43 56 1015.2 0 16.8 24.9 36.3 94.9 84.9 290.8
08/05 08:50 9.3 80 7.19 6 41 46 1015.3 0 16.8 25.0 36.4 95.2 85.2 291.5
08/05 08:40 9.1 81 7.19 6 32 37 1015.4 0 16.8 25.0 36.5 95.4 85.4 292.3
08/05 08:30 9 80 7.06 5.7 35 50 1015.2 0 16.5 24.8 36.0 94.1 83.8 286.5
08/05 08:20 8.9 80 7.01 5.6 30 32 1015.1 0 16.4 24.8 35.8 93.7 83.2 284.5
08/05 08:10 8.6 82 7.05 5.7 33 48 1015 0 16.5 24.9 36.1 94.5 84.0 287.5
08/05 08:00 8.7 80 6.92 5.4 26 48 1014.9 0 16.2 24.7 35.5 93.0 82.2 281.0
08/05 07:50 8.5 80 6.83 5.2 22 30 1015 0 16.0 24.6 35.3 92.2 81.2 277.6
08/05 07:40 8.3 80 6.75 5 22 24 1014.9 0 15.9 24.5 35.0 91.6 80.3 274.5
08/05 07:30 8.2 79 6.62 4.8 26 43 1014.6 0 15.6 24.3 34.5 90.3 78.7 268.7
08/05 07:20 8.2 78 6.53 4.6 32 41 1014.2 0 15.4 24.2 34.1 89.3 77.5 264.5
08/05 07:10 8.1 78 6.49 4.5 30 32 1014.1 0 15.3 24.1 34.0 89.0 77.1 263.0
08/05 07:00 7.9 79 6.49 4.5 28 41 1013.9 0 15.3 24.2 34.1 89.2 77.2 263.6
08/05 06:50 7.9 78 6.41 4.4 28 33 1014 0 15.2 24.0 33.8 88.3 76.2 259.9
08/05 06:40 7.6 79 6.37 4.2 33 39 1013.5 0 15.1 24.0 33.7 88.2 75.9 258.9
08/05 06:30 7.9 76 6.25 3.9 37 48 1013.5 0 14.8 23.8 33.1 86.6 74.1 252.4
08/05 06:20 7.8 76 6.21 3.8 41 48 1013.1 0 14.7 23.7 33.0 86.2 73.6 250.8
08/05 06:10 7.8 76 6.21 3.8 39 44 1013.4 0 14.7 23.7 33.0 86.3 73.6 250.9
08/05 06:00 7.5 77 6.17 3.7 35 43 1013.4 0 14.7 23.7 33.0 86.2 73.4 250.0
08/05 05:50 7.5 77 6.17 3.7 33 37 1013.3 0 14.7 23.7 33.0 86.1 73.4 250.0
08/05 05:40 7.5 76 6.09 3.5 35 37 1013.1 0 14.5 23.6 32.6 85.3 72.3 246.3
08/05 05:30 7.1 78 6.09 3.5 30 39 1013.4 0 14.5 23.7 32.8 85.7 72.7 247.6
08/05 05:20 7 78 6.05 3.4 30 33 1013.3 0 14.4 23.7 32.7 85.4 72.3 246.1
08/05 05:10 7.2 78 6.13 3.6 33 37 1013.1 0 14.6 23.7 32.9 86.0 73.1 249.1
08/05 05:00 7 78 6.05 3.4 32 41 1013.1 0 14.4 23.7 32.7 85.4 72.3 246.0
08/05 04:50 7.2 77 6.05 3.4 33 37 1013.1 0 14.4 23.6 32.6 85.2 72.1 245.4
08/05 04:40 7.2 77 6.05 3.4 35 41 1013.1 0 14.4 23.6 32.6 85.2 72.1 245.4
08/05 04:30 7.2 77 6.05 3.4 35 46 1013 0 14.4 23.6 32.6 85.2 72.1 245.4
08/05 04:20 7 78 6.05 3.4 32 37 1013.3 0 14.4 23.7 32.7 85.4 72.3 246.1
08/05 04:10 7.2 76 5.97 3.2 33 41 1013.5 0 14.2 23.5 32.3 84.4 71.1 241.8
08/05 04:00 7 78 6.05 3.4 33 41 1013.5 0 14.4 23.7 32.7 85.4 72.3 246.1
08/05 03:50 7.1 77 6.01 3.3 32 35 1013.4 0 14.3 23.6 32.5 84.9 71.7 243.9
08/05 03:40 7.1 76 5.93 3.1 37 43 1013.4 0 14.2 23.5 32.2 84.1 70.6 240.3
08/05 03:30 7 77 5.97 3.3 39 50 1013.4 0 14.2 23.5 32.4 84.6 71.2 242.4
08/05 03:20 7 76 5.89 3 41 52 1013.1 0 14.1 23.4 32.1 83.7 70.2 238.7
08/05 03:10 6.7 77 5.85 2.9 28 30 1013.6 0 14.0 23.4 32.0 83.7 70.0 237.8
08/05 03:00 7.1 77 6.01 3.3 30 48 1013.7 0 14.3 23.6 32.5 84.9 71.7 244.0
08/05 02:50 6.7 77 5.85 2.9 28 37 1013.9 0 14.0 23.5 32.1 83.7 70.0 237.9
08/05 02:40 6.9 76 5.85 2.9 28 33 1014.2 0 14.0 23.4 32.0 83.5 69.8 237.4
08/05 02:30 6.8 75 5.74 2.7 30 39 1014.2 0 13.8 23.3 31.6 82.4 68.5 232.6
08/05 02:20 6.4 77 5.74 2.6 30 35 1014.2 0 13.8 23.4 31.7 82.9 68.8 233.8
08/05 02:10 6.1 78 5.7 2.5 32 33 1014.2 0 13.7 23.4 31.7 82.8 68.6 232.9
08/05 02:00 6.1 76 5.56 2.2 30 44 1014.1 0 13.4 23.2 31.2 81.3 66.7 226.4
08/05 01:50 5.7 78 5.55 2.1 26 30 1014.5 0 13.4 23.3 31.3 81.6 67.0 227.2
08/05 01:40 5.5 79 5.55 2.1 20 24 1014.8 0 13.4 23.3 31.4 81.8 67.2 227.8
08/05 01:30 5.3 79 5.48 2 19 28 1015 0 13.3 23.3 31.2 81.3 66.4 225.2
08/05 01:20 5.3 79 5.48 1.9 22 26 1014.8 0 13.3 23.3 31.2 81.3 66.4 225.2
08/05 01:10 5 81 5.51 2 24 32 1014.9 0 13.3 23.4 31.4 81.9 67.1 227.5
08/05 01:00 4.7 82 5.47 1.9 33 43 1014.9 0 13.3 23.4 31.4 81.8 66.8 226.5
08/05 00:50 4.5 82 5.39 1.7 32 37 1015 0 13.1 23.3 31.1 81.2 65.9 223.3
08/05 00:40 4.2 84 5.42 1.7 30 33 1015.2 0 13.2 23.5 31.4 81.8 66.6 225.6
08/05 00:20 4.3 82 5.32 1.5 28 32 1015.6 0 12.9 23.3 31.0 80.7 65.2 220.8
08/05 00:10 4.2 82 5.29 1.4 28 33 1015.7 0 12.9 23.3 30.9 80.5 64.9 219.7
08/05 00:00 4.3 81 5.26 1.3 32 41 1015.7 0 12.8 23.2 30.7 80.1 64.4 218.0
07/05 23:50 4.1 82 5.25 1.4 33 39 1015.9 0 12.8 23.2 30.8 80.2 64.5 218.1
07/05 23:40 4 82 5.22 1.3 28 32 1016 0 12.7 23.2 30.7 80.0 64.1 217.1
07/05 23:30 3.9 84 5.31 1.4 15 30 1016.1 0 12.9 23.4 31.1 81.1 65.4 221.5
07/05 23:20 4.1 84 5.38 1.6 17 19 1016.2 0 13.1 23.5 31.3 81.6 66.2 224.3
07/05 23:10 4.2 85 5.48 1.9 13 13 1016.4 0 13.3 23.6 31.7 82.6 67.5 228.7
07/05 23:00 4.1 86 5.51 2 15 20 1016.6 0 13.4 23.7 31.8 83.0 68.0 230.4
07/05 22:50 4.1 85 5.44 1.9 17 22 1016.8 0 13.2 23.6 31.6 82.3 67.0 227.2
07/05 22:40 4.1 85 5.44 1.8 13 15 1017 0 13.2 23.6 31.6 82.3 67.0 227.2
07/05 22:30 4.2 84 5.42 1.7 19 28 1017.2 0 13.2 23.5 31.5 82.0 66.7 226.0
07/05 22:20 4.3 82 5.32 1.5 15 15 1017.2 0 12.9 23.4 31.0 80.9 65.3 221.1
07/05 22:10 4.3 81 5.26 1.3 19 20 1017.2 0 12.8 23.3 30.8 80.2 64.5 218.3
07/05 22:00 4.3 79 5.13 1 20 26 1017.3 0 12.5 23.0 30.3 78.8 62.8 212.3
07/05 21:50 4.6 75 4.97 0.5 19 20 1017.5 0 12.2 22.7 29.5 76.9 60.5 204.2
07/05 21:40 4.7 74 4.93 0.4 20 22 1017.5 0 12.1 22.6 29.3 76.3 59.9 202.2
07/05 21:30 4.5 75 4.93 0.5 24 37 1017.3 0 12.1 22.7 29.4 76.5 60.0 202.6
07/05 21:20 4.7 74 4.93 0.4 32 39 1017.5 0 12.1 22.6 29.3 76.3 59.9 202.2
07/05 21:10 4.6 75 4.97 0.5 37 43 1017.2 0 12.2 22.7 29.5 76.8 60.5 204.2
07/05 21:00 4.5 77 5.07 0.8 32 43 1017.2 0 12.4 22.9 30.0 78.0 61.8 209.0
07/05 20:50 4.5 77 5.07 0.8 35 41 1017.2 0 12.4 22.9 30.0 78.0 61.8 209.0
07/05 20:40 4.6 73 4.83 0.3 30 33 1017.1 0 11.9 22.5 29.0 75.4 58.6 197.8
07/05 20:30 4.5 75 4.93 0.5 28 41 1017.2 0 12.1 22.7 29.4 76.5 60.0 202.6
07/05 20:20 4.6 73 4.83 0.3 37 41 1017.1 0 11.9 22.5 29.0 75.4 58.6 197.8
07/05 20:10 4.4 76 4.97 0.5 33 39 1017.1 0 12.2 22.8 29.6 77.0 60.6 204.7
07/05 20:00 4.4 76 4.97 0.6 33 54 1016.9 0 12.2 22.8 29.6 77.0 60.6 204.6
07/05 19:50 4.4 73 4.77 0.1 32 37 1017 0 11.8 22.4 28.8 74.9 58.0 195.6

Last Refresh: 08-May-2026 12:07:18

Bureau of Meteorology